Terminal Aerodrome Forecast
Issued by NWS Boston, MA

Home | Current Version | Previous Version | Text Only | Print | Product List | Glossary On
Versions: 1 2 3 4 5 6 7 8 9 10 11 12 13 14 15 16 17 18 19 20 21 22 23 24 25 26 27 28 29 30 31 32 33 34 35 36 37 38 39 40
000
FTUS41 KBOX 041832 AAA
TAFORH
TAF AMD
KORH 041832Z 0419/0518 20010G20KT P6SM VCTS BKN060CB
     FM041945 28015G25KT 3SM TSRA BR BKN025CB
     FM042030 23011KT 6SM BR VCTS BKN040CB
     FM042300 28009KT P6SM BKN080
     FM050100 29004KT P6SM SCT090
     FM050300 00000KT P6SM SCT100=

USA.gov is the U.S. government's official web portal to all federal, state and local government web resources and services.